createdAt,value
2022-08-17T00:03:13.628Z,7.30
2022-08-17T00:08:19.401Z,12.98
2022-08-17T00:13:25.651Z,6.82
2022-08-17T00:19:01.610Z,5.05
2022-08-17T00:23:54.862Z,6.68
2022-08-17T00:28:57.468Z,6.97
2022-08-17T00:34:01.384Z,8.15
2022-08-17T00:39:04.589Z,6.90
2022-08-17T00:44:07.007Z,9.13
2022-08-17T00:49:12.670Z,12.57
2022-08-17T00:54:20.686Z,13.27
2022-08-17T01:00:02.141Z,10.98
2022-08-17T01:05:10.293Z,9.18
2022-08-17T01:10:58.270Z,11.18
2022-08-17T01:15:40.229Z,10.48
2022-08-17T01:20:49.493Z,11.63
2022-08-17T01:25:55.878Z,10.38
2022-08-17T01:31:01.962Z,13.93
2022-08-17T01:36:06.437Z,12.90
2022-08-17T01:41:13.785Z,11.45
2022-08-17T01:46:20.111Z,11.27
2022-08-17T01:51:23.525Z,11.77
2022-08-17T01:56:29.477Z,12.07
2022-08-17T02:01:33.368Z,12.20
2022-08-17T02:06:45.022Z,11.55
2022-08-17T02:11:49.923Z,10.90
2022-08-17T02:16:52.965Z,10.38
2022-08-17T02:21:55.765Z,9.55
2022-08-17T02:26:59.682Z,9.73
2022-08-17T02:32:02.162Z,9.15
2022-08-17T02:37:05.559Z,8.52
2022-08-17T02:42:10.192Z,8.32
2022-08-17T02:47:13.105Z,8.63
2022-08-17T02:52:15.929Z,8.20
2022-08-17T02:57:39.963Z,7.75
2022-08-17T03:02:44.363Z,7.32
2022-08-17T03:07:47.258Z,8.55
2022-08-17T03:12:53.045Z,8.25
2022-08-17T03:17:56.608Z,8.23
2022-08-17T03:23:01.770Z,8.23
2022-08-17T03:28:07.562Z,9.67
2022-08-17T03:33:10.378Z,9.73
2022-08-17T03:38:15.003Z,9.32
2022-08-17T03:43:21.474Z,12.05
2022-08-17T03:48:24.559Z,13.40
2022-08-17T03:53:27.300Z,14.73
2022-08-17T03:58:31.170Z,17.15
2022-08-17T04:03:33.593Z,14.48
2022-08-17T04:08:36.044Z,14.85
2022-08-17T04:13:40.430Z,15.57
2022-08-17T04:18:42.841Z,16.30
2022-08-17T04:23:45.670Z,16.70
2022-08-17T04:28:49.712Z,18.13
2022-08-17T04:33:52.234Z,19.48
2022-08-17T04:38:54.657Z,19.52
2022-08-17T04:43:58.937Z,17.50
2022-08-17T04:49:04.518Z,19.15
2022-08-17T04:54:09.544Z,19.70
2022-08-17T04:59:15.386Z,18.50
2022-08-17T05:04:33.392Z,21.63
2022-08-17T05:09:37.744Z,21.90
2022-08-17T05:14:42.458Z,20.65
2022-08-17T05:19:48.765Z,20.63
2022-08-17T05:24:55.496Z,24.33
2022-08-17T05:29:59.829Z,35.78
2022-08-17T05:35:02.298Z,29.05
2022-08-17T05:40:06.679Z,24.35
2022-08-17T05:45:11.805Z,26.83
2022-08-17T05:50:27.157Z,28.80
2022-08-17T05:55:42.021Z,24.77
2022-08-17T06:00:54.084Z,24.60
2022-08-17T06:06:25.186Z,25.52
2022-08-17T06:11:40.726Z,26.33
2022-08-17T06:16:48.856Z,24.13
2022-08-17T06:21:55.141Z,23.15
2022-08-17T06:27:06.838Z,24.67
2022-08-17T06:32:13.109Z,23.75
2022-08-17T06:37:51.000Z,22.50
2022-08-17T06:43:07.345Z,26.33
2022-08-17T06:48:15.615Z,22.95
2022-08-17T06:53:25.384Z,22.30
2022-08-17T06:58:30.012Z,19.02
2022-08-17T07:03:37.258Z,18.95
2022-08-17T07:08:49.520Z,20.90
2022-08-17T07:14:08.947Z,20.63
2022-08-17T07:19:15.770Z,18.42
2022-08-17T07:29:41.040Z,19.65
2022-08-17T07:35:07.094Z,20.63
2022-08-17T07:40:21.083Z,17.65
2022-08-17T07:45:23.660Z,20.13
2022-08-17T07:50:29.570Z,25.67
2022-08-17T07:55:33.295Z,21.47
2022-08-17T08:00:35.758Z,20.83
2022-08-17T08:05:52.582Z,18.90
2022-08-17T08:11:01.387Z,18.73
2022-08-17T08:16:23.573Z,18.58
2022-08-17T08:21:38.474Z,18.05
2022-08-17T08:26:45.332Z,17.85
2022-08-17T08:37:16.284Z,18.55
2022-08-17T08:42:28.421Z,20.45
2022-08-17T08:47:45.822Z,21.55
2022-08-17T08:53:04.292Z,23.60
2022-08-17T08:58:31.957Z,23.02
2022-08-17T09:04:16.999Z,33.40
2022-08-17T09:09:32.895Z,28.75
2022-08-17T09:14:44.991Z,24.45
2022-08-17T09:19:54.759Z,27.30
2022-08-17T09:25:07.641Z,23.80
2022-08-17T09:30:12.807Z,27.80
2022-08-17T09:35:17.356Z,24.67
2022-08-17T09:40:25.851Z,24.45
2022-08-17T09:45:34.660Z,20.35
2022-08-17T09:51:03.709Z,20.38
2022-08-17T09:56:25.985Z,18.70
2022-08-17T10:01:35.757Z,17.58
2022-08-17T10:06:47.354Z,16.27
2022-08-17T10:11:57.691Z,16.70
2022-08-17T10:17:05.547Z,14.50
2022-08-17T10:22:34.984Z,15.80
2022-08-17T10:27:44.858Z,15.43
2022-08-17T10:32:51.650Z,13.82
2022-08-17T10:38:24.578Z,15.95
2022-08-17T10:44:36.671Z,15.07
2022-08-17T10:49:26.386Z,15.73
2022-08-17T10:54:38.032Z,16.77
2022-08-17T10:59:53.605Z,15.23
2022-08-17T11:05:19.474Z,15.20
2022-08-17T11:10:41.519Z,12.82
2022-08-17T11:16:03.491Z,10.88
2022-08-17T11:21:59.611Z,13.15
2022-08-17T11:27:12.363Z,12.57
2022-08-17T11:32:47.419Z,11.38
2022-08-17T11:38:00.243Z,10.23
2022-08-17T11:43:27.765Z,10.55
2022-08-17T11:48:42.801Z,10.57
2022-08-17T11:59:55.321Z,11.52
2022-08-17T12:05:33.520Z,12.07
2022-08-17T12:10:52.398Z,10.90
2022-08-17T12:15:56.117Z,11.07
2022-08-17T12:21:19.950Z,9.48
2022-08-17T12:26:26.876Z,10.18
2022-08-17T12:31:34.671Z,10.13
2022-08-17T12:36:40.806Z,11.10
2022-08-17T12:41:46.527Z,9.95
2022-08-17T12:46:54.335Z,10.20
2022-08-17T12:52:13.706Z,8.13
2022-08-17T12:57:19.280Z,11.43
2022-08-17T13:02:40.216Z,10.83
2022-08-17T13:07:45.671Z,9.55
2022-08-17T13:12:48.777Z,7.77
2022-08-17T13:18:00.953Z,7.70
2022-08-17T13:23:11.986Z,8.60
2022-08-17T13:28:30.579Z,10.13
2022-08-17T13:33:44.667Z,9.02
2022-08-17T13:38:49.276Z,8.63
2022-08-17T13:43:51.952Z,8.80
2022-08-17T13:49:02.352Z,8.48
2022-08-17T13:54:25.922Z,7.65
2022-08-17T13:59:53.825Z,9.23
2022-08-17T14:04:55.624Z,7.95
2022-08-17T14:10:21.699Z,9.00
2022-08-17T14:20:53.217Z,9.23
2022-08-17T14:26:02.022Z,8.68
2022-08-17T14:31:16.057Z,8.80
2022-08-17T14:36:23.854Z,7.97
2022-08-17T14:41:34.717Z,7.55
2022-08-17T14:46:50.598Z,13.05
2022-08-17T14:51:56.598Z,9.90
2022-08-17T14:57:26.005Z,7.35
2022-08-17T15:02:37.247Z,6.53
2022-08-17T15:07:44.827Z,6.18
2022-08-17T15:12:51.491Z,5.82
2022-08-17T15:17:56.079Z,5.75
2022-08-17T15:23:00.030Z,5.30
2022-08-17T15:28:10.177Z,4.07
2022-08-17T15:33:16.378Z,4.00
2022-08-17T15:38:26.200Z,4.43
2022-08-17T15:43:34.202Z,6.05
2022-08-17T15:48:36.982Z,7.35
2022-08-17T15:53:42.928Z,8.43
2022-08-17T15:58:51.793Z,5.37
2022-08-17T16:04:03.975Z,3.85
2022-08-17T16:09:15.281Z,3.63
2022-08-17T16:14:24.130Z,1.60
2022-08-17T16:19:27.120Z,1.85
2022-08-17T16:24:30.351Z,1.92
2022-08-17T16:29:38.348Z,2.00
2022-08-17T16:34:43.258Z,1.83
2022-08-17T16:39:48.470Z,1.90
2022-08-17T16:44:59.461Z,1.38
2022-08-17T16:50:02.163Z,3.35
2022-08-17T16:55:07.426Z,2.10
2022-08-17T17:00:15.038Z,2.30
2022-08-17T17:05:33.692Z,1.60
2022-08-17T17:10:44.491Z,1.83
2022-08-17T17:15:54.386Z,1.73
2022-08-17T17:21:00.177Z,2.33
2022-08-17T17:26:19.357Z,2.33
2022-08-17T17:31:33.139Z,2.17
2022-08-17T17:36:41.815Z,1.85
2022-08-17T17:41:51.700Z,2.20
2022-08-17T17:47:01.454Z,2.58
2022-08-17T17:52:16.776Z,2.58
2022-08-17T17:57:29.960Z,2.60
2022-08-17T18:02:51.449Z,2.97
2022-08-17T18:08:09.344Z,3.33
2022-08-17T18:13:26.572Z,3.55
2022-08-17T18:18:38.257Z,3.20
2022-08-17T18:23:47.514Z,3.67
2022-08-17T18:28:51.935Z,3.75
2022-08-17T18:34:43.688Z,4.13
2022-08-17T18:39:48.298Z,16.58
2022-08-17T18:44:55.294Z,6.03
2022-08-17T18:50:21.455Z,4.03
2022-08-17T18:55:32.275Z,3.72
2022-08-17T19:00:44.587Z,3.33
2022-08-17T19:05:53.070Z,3.35
2022-08-17T19:11:07.798Z,3.10
2022-08-17T19:16:15.874Z,3.28
2022-08-17T19:21:24.671Z,2.80
2022-08-17T19:26:50.927Z,2.88
2022-08-17T19:31:57.902Z,2.88
2022-08-17T19:37:11.675Z,2.90
2022-08-17T19:42:30.339Z,3.30
2022-08-17T19:47:54.916Z,3.25
2022-08-17T19:53:07.950Z,3.05
2022-08-17T19:58:21.910Z,25.13
2022-08-17T20:03:37.283Z,9.60
2022-08-17T20:08:57.226Z,5.95
2022-08-17T20:14:04.741Z,6.15
2022-08-17T20:19:24.633Z,5.18
2022-08-17T20:24:35.293Z,5.07
2022-08-17T20:30:03.392Z,4.40
2022-08-17T20:35:24.639Z,5.05
2022-08-17T20:40:35.909Z,4.90
2022-08-17T20:46:07.427Z,4.45
2022-08-17T20:51:23.149Z,4.43
2022-08-17T20:56:50.550Z,3.65
2022-08-17T21:02:17.622Z,3.72
2022-08-17T21:07:27.989Z,3.90
2022-08-17T21:12:46.974Z,3.58
2022-08-17T21:17:56.480Z,3.50
2022-08-17T21:23:17.435Z,3.60
2022-08-17T21:28:30.077Z,3.33
2022-08-17T21:33:38.876Z,4.03
2022-08-17T21:39:03.653Z,3.47
2022-08-17T21:44:19.328Z,3.53
2022-08-17T21:49:27.746Z,3.07
2022-08-17T21:54:34.246Z,3.30
2022-08-17T21:59:39.546Z,3.25
2022-08-17T22:04:43.535Z,3.38
2022-08-17T22:09:48.828Z,2.85
2022-08-17T22:15:01.458Z,2.92
2022-08-17T22:20:08.222Z,3.47
2022-08-17T22:25:22.085Z,3.65
2022-08-17T22:30:58.287Z,3.03
2022-08-17T22:36:26.249Z,2.83
2022-08-17T22:41:50.742Z,3.25
2022-08-17T22:47:23.117Z,3.08
2022-08-17T22:52:33.182Z,3.40
2022-08-17T22:57:36.489Z,3.72
2022-08-17T23:02:55.405Z,4.10
2022-08-17T23:07:58.283Z,4.60
2022-08-17T23:13:01.338Z,4.80
2022-08-17T23:18:07.311Z,4.18
2022-08-17T23:23:12.069Z,4.32
2022-08-17T23:28:14.597Z,4.78
2022-08-17T23:33:24.433Z,3.90
2022-08-17T23:38:27.500Z,3.95
2022-08-17T23:43:30.092Z,3.50
2022-08-17T23:48:36.946Z,3.03
2022-08-17T23:53:43.756Z,3.35
2022-08-17T23:58:46.359Z,3.50
